createdAt,value
2018-01-08T00:28:53.434Z,4.70
2018-01-08T00:34:06.933Z,4.60
2018-01-08T00:39:14.357Z,4.70
2018-01-08T00:44:20.669Z,4.70
2018-01-08T00:51:59.965Z,4.70
2018-01-08T01:05:05.441Z,4.70
2018-01-08T01:28:12.269Z,4.70
2018-01-08T01:33:22.025Z,4.60
2018-01-08T01:35:51.124Z,4.70
2018-01-08T01:43:43.369Z,4.70
2018-01-08T01:53:54.204Z,4.60
2018-01-08T02:01:35.294Z,4.60
2018-01-08T02:12:07.029Z,4.60
2018-01-08T02:14:46.137Z,4.50
2018-01-08T02:17:14.912Z,4.60
2018-01-08T02:19:44.421Z,4.60
2018-01-08T02:24:58.060Z,4.50
2018-01-08T02:32:46.914Z,4.50
2018-01-08T02:35:18.976Z,4.50
2018-01-08T02:50:42.925Z,4.50
2018-01-08T02:53:17.018Z,4.40
2018-01-08T03:06:17.141Z,4.40
2018-01-08T03:08:51.556Z,4.40
2018-01-08T03:21:47.410Z,4.30
2018-01-08T03:24:17.537Z,4.30
2018-01-08T03:32:24.449Z,4.30
2018-01-08T03:37:27.113Z,4.30
2018-01-08T03:42:36.864Z,4.40
2018-01-08T03:45:05.152Z,4.30
2018-01-08T03:47:36.936Z,4.30
2018-01-08T03:57:54.551Z,4.30
2018-01-08T04:03:22.829Z,4.30
2018-01-08T04:16:11.872Z,4.20
2018-01-08T04:26:30.001Z,4.10
2018-01-08T04:29:04.009Z,4.20
2018-01-08T04:34:19.898Z,4.10
2018-01-08T04:41:54.776Z,4.10
2018-01-08T04:44:34.484Z,4.10
2018-01-08T04:47:07.212Z,4.10
2018-01-08T05:07:40.244Z,4.00
2018-01-08T05:17:58.732Z,4.00
2018-01-08T05:28:29.572Z,4.10
2018-01-08T05:33:39.336Z,4.00
2018-01-08T05:41:23.878Z,4.00
2018-01-08T05:59:46.704Z,4.00
2018-01-08T06:05:07.036Z,4.00
2018-01-08T06:23:11.516Z,4.10
2018-01-08T06:25:41.619Z,4.10
2018-01-08T06:28:11.107Z,4.00
2018-01-08T06:30:40.279Z,4.00
2018-01-08T06:33:10.531Z,4.10
2018-01-08T06:35:38.895Z,4.10
2018-01-08T06:38:10.419Z,4.00
2018-01-08T06:40:43.695Z,4.00
2018-01-08T06:43:13.824Z,4.00
2018-01-08T06:50:53.547Z,4.00
2018-01-08T06:53:28.271Z,4.00
2018-01-08T06:58:30.663Z,4.00
2018-01-08T07:01:01.424Z,4.00
2018-01-08T07:06:05.595Z,3.90
2018-01-08T07:08:37.087Z,3.90
2018-01-08T07:11:09.774Z,4.00
2018-01-08T07:13:46.087Z,4.00
2018-01-08T07:16:14.115Z,4.00
2018-01-08T07:18:47.615Z,4.00
2018-01-08T07:21:18.315Z,4.00
2018-01-08T07:23:48.359Z,4.00
2018-01-08T07:26:21.612Z,4.00
2018-01-08T07:31:47.663Z,3.90
2018-01-08T07:34:29.142Z,4.00
2018-01-08T07:37:00.255Z,4.00
2018-01-08T07:39:30.195Z,4.00
2018-01-08T07:42:01.999Z,4.00
2018-01-08T07:44:30.242Z,4.00
2018-01-08T07:46:59.207Z,4.00
2018-01-08T07:49:29.234Z,4.10
2018-01-08T07:51:59.155Z,4.00
2018-01-08T07:54:33.378Z,4.00
2018-01-08T07:57:06.339Z,4.00
2018-01-08T07:59:35.367Z,4.10
2018-01-08T08:02:08.799Z,4.10
2018-01-08T08:04:38.723Z,4.10
2018-01-08T08:07:21.567Z,4.10
2018-01-08T08:09:57.415Z,4.10
2018-01-08T08:12:26.339Z,4.20
2018-01-08T08:14:55.134Z,4.20
2018-01-08T08:17:27.140Z,4.20
2018-01-08T08:19:59.767Z,4.20
2018-01-08T08:22:33.406Z,4.20
2018-01-08T08:28:01.584Z,4.20
2018-01-08T08:30:30.531Z,4.30
2018-01-08T08:32:58.547Z,4.30
2018-01-08T08:35:26.618Z,4.30
2018-01-08T08:37:57.727Z,4.30
2018-01-08T08:40:31.360Z,4.30
2018-01-08T08:43:04.043Z,4.40
2018-01-08T08:45:33.795Z,4.30
2018-01-08T08:48:03.835Z,4.40
2018-01-08T08:50:39.899Z,4.40
2018-01-08T08:53:08.815Z,4.40
2018-01-08T08:55:45.023Z,4.40
2018-01-08T08:58:20.747Z,4.50
2018-01-08T09:00:55.235Z,4.50
2018-01-08T09:03:25.003Z,4.70
2018-01-08T09:06:05.555Z,4.60
2018-01-08T09:08:35.524Z,4.80
2018-01-08T09:11:04.443Z,4.70
2018-01-08T09:13:38.863Z,4.80
2018-01-08T09:16:10.799Z,4.80
2018-01-08T09:18:39.755Z,4.70
2018-01-08T09:21:11.350Z,4.80
2018-01-08T09:23:39.375Z,4.60
2018-01-08T09:26:19.187Z,4.60
2018-01-08T09:28:52.215Z,4.60
2018-01-08T09:31:31.814Z,4.50
2018-01-08T09:34:05.575Z,4.60
2018-01-08T09:36:44.967Z,4.60
2018-01-08T09:39:19.755Z,4.50
2018-01-08T09:41:47.806Z,4.50
2018-01-08T09:44:16.627Z,4.60
2018-01-08T09:47:03.519Z,4.60
2018-01-08T09:49:32.530Z,4.70
2018-01-08T09:52:00.566Z,4.70
2018-01-08T09:57:41.363Z,4.90
2018-01-08T10:00:13.895Z,4.90
2018-01-08T10:02:54.174Z,4.90
2018-01-08T10:05:34.983Z,5.00
2018-01-08T10:08:15.878Z,5.00
2018-01-08T10:10:55.683Z,4.90
2018-01-08T10:13:38.178Z,4.90
2018-01-08T10:16:22.066Z,4.90
2018-01-08T10:22:04.375Z,5.00
2018-01-08T10:24:47.397Z,5.00
2018-01-08T10:27:18.722Z,5.00
2018-01-08T10:30:04.814Z,5.00
2018-01-08T10:32:41.832Z,5.00
2018-01-08T10:35:31.022Z,5.00
2018-01-08T10:38:00.079Z,5.00
2018-01-08T10:40:35.243Z,5.10
2018-01-08T10:43:09.834Z,5.10
2018-01-08T10:45:52.066Z,5.10
2018-01-08T10:48:25.622Z,5.10
2018-01-08T10:51:02.602Z,5.20
2018-01-08T10:53:32.398Z,5.20
2018-01-08T10:56:02.333Z,5.10
2018-01-08T10:58:31.337Z,5.20
2018-01-08T11:01:08.053Z,5.20
2018-01-08T11:03:45.938Z,5.20
2018-01-08T11:06:24.961Z,5.20
2018-01-08T11:08:53.006Z,5.20
2018-01-08T11:11:25.790Z,5.20
2018-01-08T11:13:57.511Z,5.20
2018-01-08T11:19:02.214Z,5.20
2018-01-08T11:21:40.884Z,5.30
2018-01-08T11:24:11.630Z,5.30
2018-01-08T11:26:43.706Z,5.30
2018-01-08T11:29:12.766Z,5.40
2018-01-08T11:31:44.030Z,5.50
2018-01-08T11:34:12.277Z,5.50
2018-01-08T11:36:40.330Z,5.50
2018-01-08T11:39:30.094Z,5.70
2018-01-08T11:42:01.702Z,5.70
2018-01-08T11:44:44.862Z,6.10
2018-01-08T11:47:13.286Z,6.00
2018-01-08T11:49:51.934Z,6.20
2018-01-08T11:52:25.801Z,6.30
2018-01-08T11:54:54.742Z,6.30
2018-01-08T11:57:24.074Z,6.60
2018-01-08T11:59:58.629Z,6.80
2018-01-08T12:02:31.502Z,7.00
2018-01-08T12:05:01.566Z,7.60
2018-01-08T12:07:30.570Z,7.60
2018-01-08T12:10:00.574Z,7.70
2018-01-08T12:12:38.917Z,8.10
2018-01-08T12:15:12.693Z,7.90
2018-01-08T12:17:44.961Z,7.70
2018-01-08T12:20:14.124Z,7.60
2018-01-08T12:22:42.925Z,8.10
2018-01-08T12:25:16.645Z,8.00
2018-01-08T12:27:44.689Z,9.30
2018-01-08T12:32:53.561Z,8.90
2018-01-08T12:35:27.542Z,8.80
2018-01-08T12:37:57.337Z,8.10
2018-01-08T12:40:31.805Z,8.10
2018-01-08T12:43:01.818Z,7.90
2018-01-08T12:45:29.853Z,8.30
2018-01-08T12:48:02.777Z,9.30
2018-01-08T12:53:17.717Z,9.70
2018-01-08T12:55:50.753Z,10.70
2018-01-08T12:58:18.818Z,10.60
2018-01-08T13:00:52.049Z,10.60
2018-01-08T13:03:20.973Z,10.90
2018-01-08T13:05:51.053Z,10.90
2018-01-08T13:08:31.039Z,10.40
2018-01-08T13:10:59.173Z,9.80
2018-01-08T13:13:31.685Z,9.20
2018-01-08T13:16:00.645Z,8.20
2018-01-08T13:18:29.581Z,8.00
2018-01-08T13:20:58.965Z,8.20
2018-01-08T13:23:31.290Z,8.60
2018-01-08T13:28:34.717Z,9.10
2018-01-08T13:31:03.684Z,9.40
2018-01-08T13:33:31.753Z,9.60
2018-01-08T13:36:00.807Z,9.30
2018-01-08T13:38:28.821Z,9.20
2018-01-08T13:41:02.564Z,9.10
2018-01-08T13:43:34.323Z,9.60
2018-01-08T13:46:02.397Z,10.30
2018-01-08T13:48:33.153Z,12.30
2018-01-08T13:51:02.125Z,12.30
2018-01-08T13:56:13.277Z,12.60
2018-01-08T13:58:41.325Z,12.00
2018-01-08T14:03:41.589Z,11.40
2018-01-08T14:08:45.937Z,11.10
2018-01-08T14:11:14.881Z,11.10
2018-01-08T14:13:43.841Z,10.70
2018-01-08T14:16:12.637Z,10.90
2018-01-08T14:18:43.485Z,10.90
2018-01-08T14:21:12.349Z,10.90
2018-01-08T14:23:40.401Z,10.90
2018-01-08T14:26:10.429Z,10.70
2018-01-08T14:28:45.269Z,10.10
2018-01-08T14:31:14.293Z,10.60
2018-01-08T14:33:44.284Z,10.10
2018-01-08T14:36:15.700Z,9.60
2018-01-08T14:38:44.933Z,9.50
2018-01-08T14:41:13.009Z,9.00
2018-01-08T14:43:45.081Z,9.10
2018-01-08T14:46:13.156Z,8.70
2018-01-08T14:48:41.220Z,8.10
2018-01-08T14:51:11.228Z,8.00
2018-01-08T14:53:44.127Z,7.90
2018-01-08T14:56:13.089Z,7.80
2018-01-08T14:58:41.144Z,8.00
2018-01-08T15:01:13.149Z,7.80
2018-01-08T15:03:42.125Z,7.70
2018-01-08T15:06:11.928Z,6.60
2018-01-08T15:08:40.744Z,6.10
2018-01-08T15:11:14.320Z,6.10
2018-01-08T15:13:48.948Z,5.40
2018-01-08T15:16:40.884Z,5.10
2018-01-08T15:19:10.577Z,5.00
2018-01-08T15:21:38.669Z,4.90
2018-01-08T15:24:06.694Z,4.90
2018-01-08T15:26:42.128Z,4.80
2018-01-08T15:29:11.140Z,4.70
2018-01-08T15:31:41.196Z,4.60
2018-01-08T15:34:15.864Z,4.50
2018-01-08T15:36:44.877Z,4.40
2018-01-08T15:39:16.496Z,4.30
2018-01-08T15:41:44.528Z,4.30
2018-01-08T15:44:14.213Z,4.10
2018-01-08T15:46:42.276Z,4.10
2018-01-08T15:49:13.724Z,4.10
2018-01-08T15:51:42.676Z,4.10
2018-01-08T15:54:18.844Z,4.00
2018-01-08T15:56:47.892Z,4.00
2018-01-08T15:59:24.312Z,4.00
2018-01-08T16:01:52.348Z,4.00
2018-01-08T16:04:20.428Z,4.00
2018-01-08T16:06:48.488Z,4.00
2018-01-08T16:09:17.447Z,3.90
2018-01-08T16:11:51.265Z,3.90
2018-01-08T16:14:28.088Z,3.90
2018-01-08T16:16:59.772Z,3.90
2018-01-08T16:19:31.668Z,3.90
2018-01-08T16:22:03.284Z,4.00
2018-01-08T16:24:37.100Z,4.00
2018-01-08T16:27:07.085Z,4.00
2018-01-08T16:29:35.100Z,4.10
2018-01-08T16:32:03.141Z,4.00
2018-01-08T16:34:37.232Z,4.10
2018-01-08T16:37:11.160Z,4.00
2018-01-08T16:39:42.132Z,4.00
2018-01-08T16:42:13.877Z,4.00
2018-01-08T16:44:41.892Z,4.00
2018-01-08T16:47:11.857Z,4.00
2018-01-08T16:50:00.789Z,4.00
2018-01-08T16:52:33.588Z,4.00
2018-01-08T16:55:05.368Z,4.00
2018-01-08T16:57:41.788Z,4.00
2018-01-08T17:00:21.836Z,4.00
2018-01-08T17:03:00.252Z,4.00
2018-01-08T17:05:44.880Z,4.00
2018-01-08T17:08:17.034Z,3.90
2018-01-08T17:10:54.492Z,3.80
2018-01-08T17:13:24.506Z,3.80
2018-01-08T17:16:02.924Z,3.70
2018-01-08T17:18:30.948Z,3.70
2018-01-08T17:20:58.956Z,3.70
2018-01-08T17:23:26.980Z,3.70
2018-01-08T17:25:55.952Z,3.70
2018-01-08T17:28:23.992Z,3.80
2018-01-08T17:30:54.024Z,3.80
2018-01-08T17:33:25.096Z,3.80
2018-01-08T17:36:03.547Z,3.80
2018-01-08T17:38:36.760Z,3.90
2018-01-08T17:41:06.777Z,3.90
2018-01-08T17:43:38.228Z,3.90
2018-01-08T17:46:11.904Z,3.90
2018-01-08T17:48:44.904Z,3.90
2018-01-08T17:51:12.924Z,4.00
2018-01-08T17:53:46.972Z,4.00
2018-01-08T17:56:15.080Z,4.00
2018-01-08T17:58:44.008Z,4.00
2018-01-08T18:01:14.012Z,4.00
2018-01-08T18:03:43.976Z,3.90
2018-01-08T18:06:12.892Z,3.90
2018-01-08T18:08:47.993Z,3.90
2018-01-08T18:11:17.956Z,3.90
2018-01-08T18:13:51.420Z,3.90
2018-01-08T18:16:25.516Z,3.90
2018-01-08T18:18:54.207Z,3.80
2018-01-08T18:21:31.509Z,3.80
2018-01-08T18:27:02.544Z,3.70
2018-01-08T18:29:42.949Z,3.70
2018-01-08T18:32:17.540Z,3.70
2018-01-08T18:34:50.432Z,3.60
2018-01-08T18:37:18.612Z,3.70
2018-01-08T18:39:50.540Z,3.70
2018-01-08T18:42:23.519Z,3.70
2018-01-08T18:44:57.067Z,3.70
2018-01-08T18:47:27.156Z,3.70
2018-01-08T18:50:03.475Z,3.60
2018-01-08T18:52:47.716Z,3.60
2018-01-08T18:55:21.276Z,3.70
2018-01-08T18:57:50.219Z,3.60
2018-01-08T19:00:24.568Z,3.70
2018-01-08T19:03:03.391Z,3.70
2018-01-08T19:05:35.115Z,3.70
2018-01-08T19:08:03.783Z,3.70
2018-01-08T19:10:37.463Z,3.70
2018-01-08T19:13:20.999Z,3.70
2018-01-08T19:16:00.578Z,3.70
2018-01-08T19:18:31.479Z,3.60
2018-01-08T19:21:01.699Z,3.60
2018-01-08T19:26:24.943Z,3.60
2018-01-08T19:28:55.279Z,3.80
2018-01-08T19:31:48.639Z,3.80
2018-01-08T19:34:44.143Z,3.80
2018-01-08T19:37:24.775Z,3.90
2018-01-08T19:40:07.211Z,3.90
2018-01-08T19:45:39.035Z,4.00
2018-01-08T19:48:18.671Z,4.10
2018-01-08T19:53:49.082Z,4.10
2018-01-08T19:56:31.535Z,4.20
2018-01-08T19:59:09.859Z,4.20
2018-01-08T20:04:10.551Z,4.20
2018-01-08T20:06:42.947Z,4.20
2018-01-08T20:09:14.859Z,4.20
2018-01-08T20:11:47.555Z,4.20
2018-01-08T20:14:21.963Z,4.20
2018-01-08T20:17:05.180Z,4.30
2018-01-08T20:25:34.771Z,4.20
2018-01-08T20:28:18.979Z,4.30
2018-01-08T20:30:58.575Z,4.30
2018-01-08T20:33:30.599Z,4.30
2018-01-08T20:41:43.899Z,4.20
2018-01-08T20:47:24.375Z,4.30
2018-01-08T20:52:26.864Z,4.20
2018-01-08T21:00:43.171Z,4.20
2018-01-08T21:06:08.838Z,4.20
2018-01-08T21:08:48.123Z,4.20
2018-01-08T21:11:19.758Z,4.10
2018-01-08T21:13:54.895Z,4.20
2018-01-08T21:21:56.475Z,4.10
2018-01-08T21:24:28.887Z,4.10
2018-01-08T21:27:09.357Z,4.20
2018-01-08T21:35:07.315Z,4.20
2018-01-08T21:40:54.254Z,4.20
2018-01-08T21:43:40.047Z,4.20
2018-01-08T21:46:10.283Z,4.20
2018-01-08T21:51:18.346Z,4.20
2018-01-08T21:53:48.911Z,4.20
2018-01-08T21:56:24.535Z,4.20
2018-01-08T22:06:54.094Z,4.20
2018-01-08T22:09:23.562Z,4.20
2018-01-08T22:11:58.762Z,4.20
2018-01-08T22:14:29.106Z,4.30
2018-01-08T22:16:59.223Z,4.20
2018-01-08T22:22:30.930Z,4.20
2018-01-08T22:28:07.894Z,4.20
2018-01-08T22:30:40.530Z,4.20
2018-01-08T22:33:10.434Z,4.10
2018-01-08T22:41:08.491Z,4.10
2018-01-08T22:46:50.450Z,4.20
2018-01-08T22:55:11.098Z,4.10
2018-01-08T22:57:46.498Z,4.10
2018-01-08T23:00:27.358Z,4.10
2018-01-08T23:02:59.866Z,4.10
2018-01-08T23:08:17.401Z,4.10
2018-01-08T23:11:00.214Z,4.20
2018-01-08T23:13:41.374Z,4.10
2018-01-08T23:16:21.418Z,4.10
2018-01-08T23:18:50.634Z,4.10
2018-01-08T23:21:37.870Z,4.10
2018-01-08T23:24:11.606Z,4.10
2018-01-08T23:29:30.438Z,4.00
2018-01-08T23:32:09.670Z,4.00
2018-01-08T23:34:53.222Z,3.90
2018-01-08T23:37:27.462Z,4.00
2018-01-08T23:40:00.630Z,3.90
2018-01-08T23:42:35.338Z,3.90
2018-01-08T23:45:10.553Z,3.90
